METAR Data
IDs: Format: Raw Decoded Include TAF

Data at: 0558 UTC 24 Sep 2018

KMZH 240555Z AUTO 11003KT 10SM OVC004 09/08 A2997 RMK AO2
KMZH 240535Z AUTO 10006KT 10SM OVC004 08/08 A2996 RMK AO2
KMZH 240515Z AUTO 05005KT 10SM OVC004 08/07 A2999 RMK AO2
KMZH 240455Z AUTO 06003KT 10SM OVC004 08/07 A2999 RMK AO2
KMZH 240435Z AUTO 07003KT 10SM OVC004 08/07 A3000 RMK AO2
KMZH 240415Z AUTO 08005KT 7SM OVC004 08/07 A3000 RMK AO2
KMZH 240355Z AUTO 08004KT 5SM BR OVC004 08/07 A3001 RMK AO2
KMZH 240335Z AUTO 07005KT 4SM BR OVC004 08/07 A3001 RMK AO2
KMZH 240315Z AUTO 07003KT 4SM BR OVC004 08/07 A3001 RMK AO2
KMZH 240255Z AUTO 07006KT 7SM OVC004 08/07 A3002 RMK AO2
KMZH 240235Z AUTO 06006KT 7SM OVC004 08/07 A3001 RMK AO2
KMZH 240215Z AUTO 06007KT 042V102 5SM BR OVC004 08/07 A3001 RMK AO2
KMZH 240155Z AUTO 06006KT 4SM BR OVC004 08/07 A3002 RMK AO2
KMZH 240135Z AUTO 06006G16KT 4SM BR OVC004 08/07 A3001 RMK AO2
KMZH 240115Z AUTO 07009G15KT 042V122 5SM BR OVC004 08/07 A3001 RMK AO2
KMZH 240055Z AUTO 08006KT 5SM BR OVC004 08/07 A3001 RMK AO2
KMZH 240035Z AUTO 07008KT 042V112 7SM OVC004 08/07 A3001 RMK AO2
KMZH 240015Z AUTO 07009G18KT 052V112 10SM OVC006 08/07 A3001 RMK AO2
KMZH 232355Z AUTO 07009G17KT 10SM OVC006 08/07 A3002 RMK AO2
KMZH 232335Z AUTO 07010KT 032V112 10SM OVC008 09/07 A3003 RMK AO2
KMZH 232315Z AUTO 06010G14KT 10SM OVC008 09/07 A3004 RMK AO2
KMZH 232255Z AUTO 06007KT 032V092 10SM OVC008 10/07 A3004 RMK AO2
KMZH 232235Z AUTO 05007KT 10SM OVC010 10/07 A3002 RMK AO2
KMZH 232215Z AUTO 06010G16KT 10SM OVC010 10/07 A3002 RMK AO2
KMZH 232155Z AUTO 07010KT 10SM OVC010 10/07 A3002 RMK AO2
KMZH 232135Z AUTO 06007G14KT 032V092 10SM OVC010 11/07 A3003 RMK AO2
KMZH 232115Z AUTO 07010G18KT 042V102 10SM OVC010 11/07 A3003 RMK AO2
KMZH 232055Z AUTO 06006KT 10SM OVC010 10/07 A3004 RMK AO2
KMZH 232035Z AUTO 06007KT 10SM OVC010 10/07 A3005 RMK AO2
KMZH 232015Z AUTO 06008KT 10SM OVC010 10/07 A3006 RMK AO2
KMZH 231955Z AUTO 06008KT 032V092 10SM OVC010 10/07 A3007 RMK AO2
KMZH 231935Z AUTO 06009G14KT 10SM OVC010 10/07 A3007 RMK AO2
KMZH 231916Z AUTO 07006KT 10SM OVC010 10/07 A3007 RMK AO2
KMZH 231855Z AUTO 07007KT 052V112 10SM OVC010 10/07 A3009 RMK AO2
KMZH 231835Z AUTO 09008G15KT 052V142 10SM OVC008 10/07 A3009 RMK AO2
KMZH 231815Z AUTO 06005G14KT 10SM OVC008 10/07 A3010 RMK AO2
KMZH 231755Z AUTO 07008KT 042V112 10SM OVC008 10/07 A3011 RMK AO2
KMZH 231735Z AUTO 06004KT 10SM OVC008 10/07 A3011 RMK AO2
KMZH 231715Z AUTO 09009KT 042V122 10SM OVC008 10/07 A3012 RMK AO2
KMZH 231655Z AUTO 07006G14KT 10SM OVC008 10/07 A3013 RMK AO2
KMZH 231635Z AUTO 07004KT 10SM OVC008 10/07 A3013 RMK AO2
KMZH 231615Z AUTO 07008KT 032V122 10SM OVC008 10/07 A3013 RMK AO2
KMZH 231555Z AUTO 07007G14KT 10SM OVC006 09/07 A3013 RMK AO2
KMZH 231535Z AUTO 07006G16KT 10SM OVC004 08/07 A3013 RMK AO2
KMZH 231515Z AUTO 07007KT 10SM OVC004 08/07 A3013 RMK AO2
KMZH 231455Z AUTO 06008KT 022V102 10SM OVC004 08/07 A3012 RMK AO2
KMZH 231435Z AUTO 06006KT 10SM OVC004 08/07 A3011 RMK AO2
KMZH 231416Z AUTO 07005KT 10SM OVC004 08/07 A3011 RMK AO2
KMZH 231355Z AUTO 07006KT 5SM BR OVC004 08/07 A3009 RMK AO2
KMZH 231335Z AUTO 07006KT 10SM OVC004 09/08 A3009 RMK AO2
KMZH 231316Z AUTO 07004KT 10SM OVC004 09/08 A3008 RMK AO2
KMZH 231255Z AUTO 08003KT 10SM OVC004 09/08 A3007 RMK AO2
KMZH 231235Z AUTO 08003KT 10SM OVC004 09/08 A3007 RMK AO2
KMZH 231216Z AUTO 07006KT 10SM OVC004 09/08 A3007 RMK AO2
KMZH 231155Z AUTO 08006KT 10SM OVC004 09/08 A3007 RMK AO2
KMZH 231135Z AUTO 07006KT 10SM OVC004 09/08 A3006 RMK AO2
KMZH 231116Z AUTO 07008KT 042V102 10SM OVC004 10/09 A3007 RMK AO2
KMZH 231055Z AUTO 07005KT 10SM OVC004 10/08 A3007 RMK AO2
KMZH 231035Z AUTO 06004KT 10SM OVC004 10/08 A3008 RMK AO2
KMZH 231015Z AUTO 06005KT 10SM OVC004 10/08 A3007 RMK AO2
KMZH 230955Z AUTO 06005KT 10SM OVC002 10/08 A3007 RMK AO2
KMZH 230935Z AUTO 05005KT 5SM BR OVC002 08/08 A3007 RMK AO2
KMZH 230915Z AUTO 05003KT 10SM SCT002 SCT070 08/07 A3007 RMK AO2
KMZH 230855Z AUTO 05004KT 10SM CLR 07/06 A3007 RMK AO2
KMZH 230835Z AUTO 04003KT 10SM SCT100 07/06 A3006 RMK AO2
KMZH 230815Z AUTO 03003KT 10SM CLR 07/06 A3005 RMK AO2
KMZH 230756Z AUTO 00000KT 10SM SCT100 07/06 A3005 RMK AO2
KMZH 230735Z AUTO 00000KT 10SM SCT100 06/06 A3005 RMK AO2
KMZH 230715Z AUTO 00000KT 10SM CLR 07/06 A3005 RMK AO2
KMZH 230655Z AUTO 00000KT 10SM CLR 07/06 A3005 RMK AO2
KMZH 230635Z AUTO 00000KT 10SM CLR 07/06 A3006 RMK AO2
KMZH 230615Z AUTO 00000KT 7SM CLR 07/06 A3005 RMK AO2
KMZH 230555Z AUTO 00000KT 7SM SCT100 07/06 A3005 RMK AO2
KMZH 230535Z AUTO 00000KT 7SM SCT100 07/06 A3005 RMK AO2
KMZH 230515Z AUTO 00000KT 7SM SCT100 07/07 A3006 RMK AO2
KMZH 230455Z AUTO 00000KT 10SM SCT100 07/06 A3006 RMK AO2
KMZH 230435Z AUTO 00000KT 10SM SCT100 08/07 A3006 RMK AO2
KMZH 230416Z AUTO 00000KT 10SM BKN110 08/07 A3006 RMK AO2
KMZH 230355Z AUTO 00000KT 10SM OVC110 08/07 A3006 RMK AO2
KMZH 230335Z AUTO 00000KT 10SM BKN110 08/07 A3006 RMK AO2
KMZH 230316Z AUTO 00000KT 10SM SCT110 08/07 A3006 RMK AO2
KMZH 230255Z AUTO 00000KT 10SM SCT100 08/07 A3006 RMK AO2
KMZH 230235Z AUTO 00000KT 10SM SCT110 09/07 A3006 RMK AO2
KMZH 230215Z AUTO 00000KT 10SM CLR 10/08 A3006 RMK AO2
KMZH 230155Z AUTO 00000KT 10SM SCT120 09/08 A3006 RMK AO2
KMZH 230135Z AUTO 00000KT 10SM BKN120 10/08 A3005 RMK AO2
KMZH 230115Z AUTO 00000KT 10SM BKN120 11/08 A3004 RMK AO2 LTG DSNT E
KMZH 230055Z AUTO 02003KT 10SM SCT120 10/08 A3004 RMK AO2 LTG DSNT NE
KMZH 230035Z AUTO 00000KT 10SM SCT090 SCT110 11/08 A3003 RMK AO2 LTG DSNT NE
KMZH 230015Z AUTO 00000KT 10SM SCT090 SCT120 12/08 A3004 RMK AO2
KMZH 222355Z AUTO 00000KT 10SM SCT110 13/07 A3003 RMK AO2 LTG DSNT N
KMZH 222335Z AUTO 00000KT 10SM BKN110 14/07 A3003 RMK AO2
KMZH 222315Z AUTO 00000KT 10SM SCT080 BKN110 15/06 A3003 RMK AO2
KMZH 222255Z AUTO 20005KT 10SM OVC090 14/06 A3004 RMK AO2
KMZH 222235Z AUTO 20003KT 10SM -VCTSRA SCT075 BKN090 OVC120 15/06 A3004 RMK AO2 LTG DSNT NW
KMZH 222215Z AUTO 20008KT 10SM BKN090 BKN110 15/05 A3004 RMK AO2 LTG DSNT W
KMZH 222155Z AUTO 19006KT 10SM SCT080 17/05 A3004 RMK AO2
KMZH 222135Z AUTO 18007KT 10SM SCT075 SCT110 17/05 A3005 RMK AO2
KMZH 222115Z AUTO 20010G18KT 10SM BKN075 BKN110 17/05 A3006 RMK AO2
KMZH 222055Z AUTO 21008KT 10SM OVC075 16/05 A3007 RMK AO2
KMZH 222035Z AUTO 20006G14KT 162V222 10SM BKN075 OVC110 15/05 A3007 RMK AO2
KMZH 222015Z AUTO 20007KT 152V222 10SM SCT075 SCT120 16/05 A3008 RMK AO2
KMZH 221956Z AUTO 22010G14KT 10SM SCT075 SCT090 16/05 A3009 RMK AO2
KMZH 221935Z AUTO 21010G15KT 172V242 10SM SCT075 SCT090 16/05 A3011 RMK AO2
KMZH 221915Z AUTO 21010G18KT 10SM CLR 16/04 A3012 RMK AO2
KMZH 221855Z AUTO 20008G17KT 142V222 10SM SCT085 16/05 A3013 RMK AO2
KMZH 221835Z AUTO 20006G15KT 10SM SCT085 15/05 A3014 RMK AO2
KMZH 221815Z AUTO 22012G21KT 10SM SCT085 15/04 A3015 RMK AO2